sensor_id;sensor_type;location;lat;lon;timestamp;P1;durP1;ratioP1;P2;durP2;ratioP2
42518;SDS011;28147;47.520;18.920;2023-02-12T00:02:17;19.67;;;9.75;;
42518;SDS011;28147;47.520;18.920;2023-02-12T00:04:53;20.95;;;9.55;;
42518;SDS011;28147;47.520;18.920;2023-02-12T00:07:18;17.67;;;8.77;;
42518;SDS011;28147;47.520;18.920;2023-02-12T00:09:43;16.67;;;8.02;;
42518;SDS011;28147;47.520;18.920;2023-02-12T00:12:09;15.95;;;7.78;;
42518;SDS011;28147;47.520;18.920;2023-02-12T00:14:35;17.30;;;8.63;;
42518;SDS011;28147;47.520;18.920;2023-02-12T00:17:01;15.73;;;9.25;;
42518;SDS011;28147;47.520;18.920;2023-02-12T00:21:11;18.77;;;9.45;;
42518;SDS011;28147;47.520;18.920;2023-02-12T00:23:41;18.02;;;8.80;;
42518;SDS011;28147;47.520;18.920;2023-02-12T00:26:16;16.38;;;9.02;;
42518;SDS011;28147;47.520;18.920;2023-02-12T00:28:47;16.58;;;8.48;;
42518;SDS011;28147;47.520;18.920;2023-02-12T00:33:47;20.25;;;10.25;;
42518;SDS011;28147;47.520;18.920;2023-02-12T00:36:14;16.42;;;9.13;;
42518;SDS011;28147;47.520;18.920;2023-02-12T00:38:41;24.80;;;10.70;;
42518;SDS011;28147;47.520;18.920;2023-02-12T00:41:07;19.73;;;10.13;;
42518;SDS011;28147;47.520;18.920;2023-02-12T00:43:32;19.05;;;10.13;;
42518;SDS011;28147;47.520;18.920;2023-02-12T00:45:58;19.02;;;9.68;;
42518;SDS011;28147;47.520;18.920;2023-02-12T00:48:23;22.65;;;9.02;;
42518;SDS011;28147;47.520;18.920;2023-02-12T00:50:49;24.55;;;10.43;;
42518;SDS011;28147;47.520;18.920;2023-02-12T00:53:14;22.20;;;9.85;;
42518;SDS011;28147;47.520;18.920;2023-02-12T00:55:40;17.40;;;8.57;;
42518;SDS011;28147;47.520;18.920;2023-02-12T00:58:05;18.45;;;10.02;;
42518;SDS011;28147;47.520;18.920;2023-02-12T01:00:31;21.90;;;9.57;;
42518;SDS011;28147;47.520;18.920;2023-02-12T01:02:57;16.17;;;9.45;;
42518;SDS011;28147;47.520;18.920;2023-02-12T01:05:22;17.25;;;9.55;;
42518;SDS011;28147;47.520;18.920;2023-02-12T01:07:48;19.55;;;9.52;;
42518;SDS011;28147;47.520;18.920;2023-02-12T01:12:20;15.18;;;8.38;;
42518;SDS011;28147;47.520;18.920;2023-02-12T01:14:45;16.50;;;8.80;;
42518;SDS011;28147;47.520;18.920;2023-02-12T01:17:11;17.80;;;8.90;;
42518;SDS011;28147;47.520;18.920;2023-02-12T01:19:36;17.88;;;9.07;;
42518;SDS011;28147;47.520;18.920;2023-02-12T01:22:02;17.35;;;8.45;;
42518;SDS011;28147;47.520;18.920;2023-02-12T01:24:27;15.43;;;9.93;;
42518;SDS011;28147;47.520;18.920;2023-02-12T01:26:53;14.73;;;8.77;;
42518;SDS011;28147;47.520;18.920;2023-02-12T01:29:18;14.07;;;8.25;;
42518;SDS011;28147;47.520;18.920;2023-02-12T01:31:44;18.58;;;10.82;;
42518;SDS011;28147;47.520;18.920;2023-02-12T01:34:09;17.13;;;8.65;;
42518;SDS011;28147;47.520;18.920;2023-02-12T01:36:35;16.23;;;10.00;;
42518;SDS011;28147;47.520;18.920;2023-02-12T01:39:02;16.63;;;9.00;;
42518;SDS011;28147;47.520;18.920;2023-02-12T01:41:49;16.58;;;9.55;;
42518;SDS011;28147;47.520;18.920;2023-02-12T01:46:45;16.33;;;8.35;;
42518;SDS011;28147;47.520;18.920;2023-02-12T01:51:49;16.15;;;9.05;;
42518;SDS011;28147;47.520;18.920;2023-02-12T01:54:17;18.27;;;9.50;;
42518;SDS011;28147;47.520;18.920;2023-02-12T01:56:45;21.20;;;9.27;;
42518;SDS011;28147;47.520;18.920;2023-02-12T01:59:10;17.63;;;9.50;;
42518;SDS011;28147;47.520;18.920;2023-02-12T02:01:37;16.70;;;9.68;;
42518;SDS011;28147;47.520;18.920;2023-02-12T02:04:10;21.23;;;8.75;;
42518;SDS011;28147;47.520;18.920;2023-02-12T02:08:46;15.00;;;8.30;;
42518;SDS011;28147;47.520;18.920;2023-02-12T02:11:55;19.45;;;9.07;;
42518;SDS011;28147;47.520;18.920;2023-02-12T02:14:34;19.08;;;9.43;;
42518;SDS011;28147;47.520;18.920;2023-02-12T02:33:09;17.80;;;9.43;;
42518;SDS011;28147;47.520;18.920;2023-02-12T02:35:47;18.48;;;9.23;;
42518;SDS011;28147;47.520;18.920;2023-02-12T02:41:03;16.33;;;8.25;;
42518;SDS011;28147;47.520;18.920;2023-02-12T02:43:37;16.90;;;8.65;;
42518;SDS011;28147;47.520;18.920;2023-02-12T02:46:13;16.50;;;9.43;;
42518;SDS011;28147;47.520;18.920;2023-02-12T02:48:48;17.02;;;9.57;;
42518;SDS011;28147;47.520;18.920;2023-02-12T02:51:19;19.83;;;8.88;;
42518;SDS011;28147;47.520;18.920;2023-02-12T02:53:51;16.60;;;9.23;;
42518;SDS011;28147;47.520;18.920;2023-02-12T02:56:22;15.57;;;8.93;;
42518;SDS011;28147;47.520;18.920;2023-02-12T02:58:52;18.23;;;10.07;;
42518;SDS011;28147;47.520;18.920;2023-02-12T03:02:54;18.98;;;8.95;;
42518;SDS011;28147;47.520;18.920;2023-02-12T03:05:26;17.10;;;8.55;;
42518;SDS011;28147;47.520;18.920;2023-02-12T03:07:58;18.58;;;9.15;;
42518;SDS011;28147;47.520;18.920;2023-02-12T03:10:30;17.35;;;9.30;;
42518;SDS011;28147;47.520;18.920;2023-02-12T03:16:32;16.20;;;9.32;;
42518;SDS011;28147;47.520;18.920;2023-02-12T03:19:04;18.85;;;9.90;;
42518;SDS011;28147;47.520;18.920;2023-02-12T03:21:43;18.75;;;9.65;;
42518;SDS011;28147;47.520;18.920;2023-02-12T03:24:15;18.25;;;10.32;;
42518;SDS011;28147;47.520;18.920;2023-02-12T03:28:10;15.52;;;8.32;;
42518;SDS011;28147;47.520;18.920;2023-02-12T03:30:47;15.90;;;9.10;;
42518;SDS011;28147;47.520;18.920;2023-02-12T03:40:10;14.98;;;8.45;;
42518;SDS011;28147;47.520;18.920;2023-02-12T03:50:45;16.30;;;8.32;;
42518;SDS011;28147;47.520;18.920;2023-02-12T03:53:26;15.38;;;8.60;;
42518;SDS011;28147;47.520;18.920;2023-02-12T03:55:55;15.50;;;8.77;;
42518;SDS011;28147;47.520;18.920;2023-02-12T04:00:08;15.00;;;8.32;;
42518;SDS011;28147;47.520;18.920;2023-02-12T04:02:52;17.13;;;8.82;;
42518;SDS011;28147;47.520;18.920;2023-02-12T04:05:23;16.52;;;8.45;;
42518;SDS011;28147;47.520;18.920;2023-02-12T04:07:50;13.90;;;8.23;;
42518;SDS011;28147;47.520;18.920;2023-02-12T04:10:19;15.55;;;8.25;;
42518;SDS011;28147;47.520;18.920;2023-02-12T04:31:09;13.38;;;7.70;;
42518;SDS011;28147;47.520;18.920;2023-02-12T04:33:45;13.07;;;7.35;;
42518;SDS011;28147;47.520;18.920;2023-02-12T04:36:25;15.32;;;7.05;;
42518;SDS011;28147;47.520;18.920;2023-02-12T04:38:59;14.88;;;7.40;;
42518;SDS011;28147;47.520;18.920;2023-02-12T04:41:27;13.73;;;7.55;;
42518;SDS011;28147;47.520;18.920;2023-02-12T04:43:55;14.35;;;8.23;;
42518;SDS011;28147;47.520;18.920;2023-02-12T04:46:20;12.93;;;7.57;;
42518;SDS011;28147;47.520;18.920;2023-02-12T04:49:04;15.63;;;7.88;;
42518;SDS011;28147;47.520;18.920;2023-02-12T04:51:29;13.52;;;6.78;;
42518;SDS011;28147;47.520;18.920;2023-02-12T04:54:05;15.73;;;7.70;;
42518;SDS011;28147;47.520;18.920;2023-02-12T04:56:31;12.05;;;7.03;;
42518;SDS011;28147;47.520;18.920;2023-02-12T04:58:56;15.32;;;7.75;;
42518;SDS011;28147;47.520;18.920;2023-02-12T05:01:22;14.60;;;8.32;;
42518;SDS011;28147;47.520;18.920;2023-02-12T05:03:48;15.10;;;7.88;;
42518;SDS011;28147;47.520;18.920;2023-02-12T05:06:17;13.32;;;7.75;;
42518;SDS011;28147;47.520;18.920;2023-02-12T05:08:42;12.48;;;7.75;;
42518;SDS011;28147;47.520;18.920;2023-02-12T05:11:08;12.98;;;7.05;;
42518;SDS011;28147;47.520;18.920;2023-02-12T05:13:35;13.95;;;7.53;;
42518;SDS011;28147;47.520;18.920;2023-02-12T05:16:05;13.50;;;7.70;;
42518;SDS011;28147;47.520;18.920;2023-02-12T05:18:31;13.32;;;7.72;;
42518;SDS011;28147;47.520;18.920;2023-02-12T05:20:59;11.60;;;6.47;;
42518;SDS011;28147;47.520;18.920;2023-02-12T05:23:28;14.85;;;8.13;;
42518;SDS011;28147;47.520;18.920;2023-02-12T05:25:56;14.13;;;7.43;;
42518;SDS011;28147;47.520;18.920;2023-02-12T05:28:23;14.13;;;7.32;;
42518;SDS011;28147;47.520;18.920;2023-02-12T05:30:49;12.38;;;6.50;;
42518;SDS011;28147;47.520;18.920;2023-02-12T05:33:14;11.85;;;6.45;;
42518;SDS011;28147;47.520;18.920;2023-02-12T05:35:40;11.82;;;6.63;;
42518;SDS011;28147;47.520;18.920;2023-02-12T05:38:05;12.85;;;7.47;;
42518;SDS011;28147;47.520;18.920;2023-02-12T05:40:31;11.00;;;6.28;;
42518;SDS011;28147;47.520;18.920;2023-02-12T05:42:56;11.32;;;6.35;;
42518;SDS011;28147;47.520;18.920;2023-02-12T05:45:21;12.73;;;7.40;;
42518;SDS011;28147;47.520;18.920;2023-02-12T05:47:52;11.43;;;6.40;;
42518;SDS011;28147;47.520;18.920;2023-02-12T05:50:18;15.13;;;7.75;;
42518;SDS011;28147;47.520;18.920;2023-02-12T05:52:43;12.00;;;6.75;;
42518;SDS011;28147;47.520;18.920;2023-02-12T05:55:08;13.35;;;6.65;;
42518;SDS011;28147;47.520;18.920;2023-02-12T05:57:34;14.32;;;8.05;;
42518;SDS011;28147;47.520;18.920;2023-02-12T05:59:59;14.50;;;7.20;;
42518;SDS011;28147;47.520;18.920;2023-02-12T06:02:25;13.23;;;7.55;;
42518;SDS011;28147;47.520;18.920;2023-02-12T06:04:50;12.43;;;6.95;;
42518;SDS011;28147;47.520;18.920;2023-02-12T06:07:15;12.75;;;7.03;;
42518;SDS011;28147;47.520;18.920;2023-02-12T06:09:41;12.52;;;6.80;;
42518;SDS011;28147;47.520;18.920;2023-02-12T06:12:06;10.25;;;6.13;;
42518;SDS011;28147;47.520;18.920;2023-02-12T06:14:32;11.52;;;5.93;;
42518;SDS011;28147;47.520;18.920;2023-02-12T06:16:57;12.23;;;6.25;;
42518;SDS011;28147;47.520;18.920;2023-02-12T06:19:22;10.70;;;6.50;;
42518;SDS011;28147;47.520;18.920;2023-02-12T06:21:48;9.60;;;5.55;;
42518;SDS011;28147;47.520;18.920;2023-02-12T06:24:14;10.65;;;5.72;;
42518;SDS011;28147;47.520;18.920;2023-02-12T06:26:41;11.38;;;6.13;;
42518;SDS011;28147;47.520;18.920;2023-02-12T06:29:06;10.32;;;6.03;;
42518;SDS011;28147;47.520;18.920;2023-02-12T06:31:33;13.65;;;7.28;;
42518;SDS011;28147;47.520;18.920;2023-02-12T06:34:01;12.68;;;6.57;;
42518;SDS011;28147;47.520;18.920;2023-02-12T06:36:31;12.43;;;6.47;;
42518;SDS011;28147;47.520;18.920;2023-02-12T06:38:56;12.35;;;6.57;;
42518;SDS011;28147;47.520;18.920;2023-02-12T06:41:24;12.73;;;6.03;;
42518;SDS011;28147;47.520;18.920;2023-02-12T06:43:49;12.02;;;6.38;;
42518;SDS011;28147;47.520;18.920;2023-02-12T06:46:15;9.27;;;5.95;;
42518;SDS011;28147;47.520;18.920;2023-02-12T06:48:40;11.73;;;5.75;;
42518;SDS011;28147;47.520;18.920;2023-02-12T06:51:07;12.10;;;5.63;;
42518;SDS011;28147;47.520;18.920;2023-02-12T06:53:37;10.82;;;5.10;;
42518;SDS011;28147;47.520;18.920;2023-02-12T06:56:04;12.02;;;5.22;;
42518;SDS011;28147;47.520;18.920;2023-02-12T06:58:31;9.55;;;5.72;;
42518;SDS011;28147;47.520;18.920;2023-02-12T07:00:56;11.13;;;4.88;;
42518;SDS011;28147;47.520;18.920;2023-02-12T07:03:32;10.73;;;4.57;;
42518;SDS011;28147;47.520;18.920;2023-02-12T07:05:58;8.48;;;4.15;;
42518;SDS011;28147;47.520;18.920;2023-02-12T07:08:23;7.65;;;4.47;;
42518;SDS011;28147;47.520;18.920;2023-02-12T07:10:48;9.40;;;4.32;;
42518;SDS011;28147;47.520;18.920;2023-02-12T07:13:14;9.05;;;4.63;;
42518;SDS011;28147;47.520;18.920;2023-02-12T07:15:39;8.10;;;4.47;;
42518;SDS011;28147;47.520;18.920;2023-02-12T07:18:05;8.00;;;4.45;;
42518;SDS011;28147;47.520;18.920;2023-02-12T07:20:30;9.90;;;4.05;;
42518;SDS011;28147;47.520;18.920;2023-02-12T07:22:55;9.32;;;5.10;;
42518;SDS011;28147;47.520;18.920;2023-02-12T07:25:21;8.75;;;4.72;;
42518;SDS011;28147;47.520;18.920;2023-02-12T07:27:46;11.85;;;4.90;;
42518;SDS011;28147;47.520;18.920;2023-02-12T07:30:12;11.70;;;5.10;;
42518;SDS011;28147;47.520;18.920;2023-02-12T07:32:38;8.73;;;4.10;;
42518;SDS011;28147;47.520;18.920;2023-02-12T07:35:03;9.75;;;4.68;;
42518;SDS011;28147;47.520;18.920;2023-02-12T07:37:28;7.65;;;3.83;;
42518;SDS011;28147;47.520;18.920;2023-02-12T07:39:54;9.52;;;4.78;;
42518;SDS011;28147;47.520;18.920;2023-02-12T07:42:19;8.35;;;4.55;;
42518;SDS011;28147;47.520;18.920;2023-02-12T07:44:45;8.10;;;4.70;;
42518;SDS011;28147;47.520;18.920;2023-02-12T07:47:10;9.20;;;4.55;;
42518;SDS011;28147;47.520;18.920;2023-02-12T07:49:36;8.20;;;4.47;;
42518;SDS011;28147;47.520;18.920;2023-02-12T07:52:01;7.40;;;4.28;;
42518;SDS011;28147;47.520;18.920;2023-02-12T07:54:26;6.45;;;3.35;;
42518;SDS011;28147;47.520;18.920;2023-02-12T07:56:52;7.57;;;3.53;;
42518;SDS011;28147;47.520;18.920;2023-02-12T07:59:17;6.90;;;3.95;;
42518;SDS011;28147;47.520;18.920;2023-02-12T08:01:45;8.18;;;3.95;;
42518;SDS011;28147;47.520;18.920;2023-02-12T08:04:14;7.15;;;3.90;;
42518;SDS011;28147;47.520;18.920;2023-02-12T08:06:42;7.40;;;4.10;;
42518;SDS011;28147;47.520;18.920;2023-02-12T08:09:11;9.18;;;4.65;;
42518;SDS011;28147;47.520;18.920;2023-02-12T08:11:39;7.65;;;3.75;;
42518;SDS011;28147;47.520;18.920;2023-02-12T08:14:06;6.32;;;3.20;;
42518;SDS011;28147;47.520;18.920;2023-02-12T08:16:35;7.57;;;3.65;;
42518;SDS011;28147;47.520;18.920;2023-02-12T08:19:02;5.88;;;3.05;;
42518;SDS011;28147;47.520;18.920;2023-02-12T08:21:29;7.40;;;3.50;;
42518;SDS011;28147;47.520;18.920;2023-02-12T08:23:54;6.78;;;3.33;;
42518;SDS011;28147;47.520;18.920;2023-02-12T08:26:25;9.07;;;3.45;;
42518;SDS011;28147;47.520;18.920;2023-02-12T08:28:54;5.82;;;3.10;;
42518;SDS011;28147;47.520;18.920;2023-02-12T08:31:23;5.38;;;3.25;;
42518;SDS011;28147;47.520;18.920;2023-02-12T08:33:59;6.00;;;3.28;;
42518;SDS011;28147;47.520;18.920;2023-02-12T08:36:26;6.80;;;3.60;;
42518;SDS011;28147;47.520;18.920;2023-02-12T08:39:02;7.03;;;3.60;;
42518;SDS011;28147;47.520;18.920;2023-02-12T08:41:29;6.97;;;3.40;;
42518;SDS011;28147;47.520;18.920;2023-02-12T08:43:56;6.38;;;3.63;;
42518;SDS011;28147;47.520;18.920;2023-02-12T08:46:25;8.30;;;4.00;;
42518;SDS011;28147;47.520;18.920;2023-02-12T08:48:55;5.35;;;3.25;;
42518;SDS011;28147;47.520;18.920;2023-02-12T08:51:25;7.10;;;2.95;;
42518;SDS011;28147;47.520;18.920;2023-02-12T08:56:20;7.22;;;3.63;;
42518;SDS011;28147;47.520;18.920;2023-02-12T08:58:45;4.78;;;2.78;;
42518;SDS011;28147;47.520;18.920;2023-02-12T09:01:13;5.75;;;2.70;;
42518;SDS011;28147;47.520;18.920;2023-02-12T09:03:41;6.80;;;3.40;;
42518;SDS011;28147;47.520;18.920;2023-02-12T09:06:07;6.65;;;3.33;;
42518;SDS011;28147;47.520;18.920;2023-02-12T09:08:34;6.00;;;3.13;;
42518;SDS011;28147;47.520;18.920;2023-02-12T09:11:04;7.22;;;3.67;;
42518;SDS011;28147;47.520;18.920;2023-02-12T09:13:32;6.75;;;3.03;;
42518;SDS011;28147;47.520;18.920;2023-02-12T09:15:59;6.07;;;3.35;;
42518;SDS011;28147;47.520;18.920;2023-02-12T09:18:26;5.95;;;3.35;;
42518;SDS011;28147;47.520;18.920;2023-02-12T09:20:52;8.43;;;3.13;;
42518;SDS011;28147;47.520;18.920;2023-02-12T09:23:17;5.97;;;3.00;;
42518;SDS011;28147;47.520;18.920;2023-02-12T09:25:43;5.50;;;3.10;;
42518;SDS011;28147;47.520;18.920;2023-02-12T09:28:10;5.07;;;2.83;;
42518;SDS011;28147;47.520;18.920;2023-02-12T09:30:37;5.32;;;3.13;;
42518;SDS011;28147;47.520;18.920;2023-02-12T09:33:03;4.65;;;2.80;;
42518;SDS011;28147;47.520;18.920;2023-02-12T09:35:29;5.72;;;3.25;;
42518;SDS011;28147;47.520;18.920;2023-02-12T09:37:55;5.07;;;2.85;;
42518;SDS011;28147;47.520;18.920;2023-02-12T09:45:46;5.10;;;2.60;;
42518;SDS011;28147;47.520;18.920;2023-02-12T09:51:24;4.40;;;2.40;;
42518;SDS011;28147;47.520;18.920;2023-02-12T09:53:59;6.32;;;2.55;;
42518;SDS011;28147;47.520;18.920;2023-02-12T09:56:30;6.57;;;3.20;;
42518;SDS011;28147;47.520;18.920;2023-02-12T09:58:58;5.75;;;3.08;;
42518;SDS011;28147;47.520;18.920;2023-02-12T10:01:26;7.60;;;3.35;;
42518;SDS011;28147;47.520;18.920;2023-02-12T10:03:52;6.20;;;2.83;;
42518;SDS011;28147;47.520;18.920;2023-02-12T10:06:24;5.25;;;3.05;;
42518;SDS011;28147;47.520;18.920;2023-02-12T10:09:02;7.75;;;3.20;;
42518;SDS011;28147;47.520;18.920;2023-02-12T10:22:47;6.05;;;3.70;;
42518;SDS011;28147;47.520;18.920;2023-02-12T10:27:54;6.35;;;2.97;;
42518;SDS011;28147;47.520;18.920;2023-02-12T10:33:10;6.45;;;3.40;;
42518;SDS011;28147;47.520;18.920;2023-02-12T10:35:42;5.60;;;3.10;;
42518;SDS011;28147;47.520;18.920;2023-02-12T10:38:30;6.05;;;3.25;;
42518;SDS011;28147;47.520;18.920;2023-02-12T10:41:00;7.55;;;3.83;;
42518;SDS011;28147;47.520;18.920;2023-02-12T10:43:26;6.75;;;3.15;;
42518;SDS011;28147;47.520;18.920;2023-02-12T10:45:53;6.53;;;3.40;;
42518;SDS011;28147;47.520;18.920;2023-02-12T10:48:19;4.60;;;2.83;;
42518;SDS011;28147;47.520;18.920;2023-02-12T10:50:56;6.03;;;3.08;;
42518;SDS011;28147;47.520;18.920;2023-02-12T10:53:25;6.70;;;3.33;;
42518;SDS011;28147;47.520;18.920;2023-02-12T10:56:29;4.32;;;2.50;;
42518;SDS011;28147;47.520;18.920;2023-02-12T11:01:15;5.80;;;2.80;;
42518;SDS011;28147;47.520;18.920;2023-02-12T11:03:41;5.30;;;2.83;;
42518;SDS011;28147;47.520;18.920;2023-02-12T11:06:10;6.13;;;3.13;;
42518;SDS011;28147;47.520;18.920;2023-02-12T11:08:39;5.38;;;3.03;;
42518;SDS011;28147;47.520;18.920;2023-02-12T11:11:06;6.00;;;2.95;;
42518;SDS011;28147;47.520;18.920;2023-02-12T11:13:38;6.57;;;3.00;;
42518;SDS011;28147;47.520;18.920;2023-02-12T11:16:09;6.10;;;2.88;;
42518;SDS011;28147;47.520;18.920;2023-02-12T11:18:35;6.53;;;3.25;;
42518;SDS011;28147;47.520;18.920;2023-02-12T11:21:06;5.38;;;2.50;;
42518;SDS011;28147;47.520;18.920;2023-02-12T11:26:08;4.38;;;2.53;;
42518;SDS011;28147;47.520;18.920;2023-02-12T11:34:13;5.30;;;2.70;;
42518;SDS011;28147;47.520;18.920;2023-02-12T11:36:40;7.20;;;3.08;;
42518;SDS011;28147;47.520;18.920;2023-02-12T11:39:28;5.07;;;2.85;;
42518;SDS011;28147;47.520;18.920;2023-02-12T11:44:52;4.40;;;2.50;;
42518;SDS011;28147;47.520;18.920;2023-02-12T11:47:21;6.15;;;2.70;;
42518;SDS011;28147;47.520;18.920;2023-02-12T11:52:20;4.10;;;2.10;;
42518;SDS011;28147;47.520;18.920;2023-02-12T11:54:48;4.40;;;2.35;;
42518;SDS011;28147;47.520;18.920;2023-02-12T12:00:14;5.93;;;2.67;;
42518;SDS011;28147;47.520;18.920;2023-02-12T12:05:24;4.30;;;1.98;;
42518;SDS011;28147;47.520;18.920;2023-02-12T12:07:57;4.43;;;2.20;;
42518;SDS011;28147;47.520;18.920;2023-02-12T12:10:34;5.32;;;2.78;;
42518;SDS011;28147;47.520;18.920;2023-02-12T12:13:14;4.57;;;2.22;;
42518;SDS011;28147;47.520;18.920;2023-02-12T12:15:47;3.72;;;1.98;;
42518;SDS011;28147;47.520;18.920;2023-02-12T12:21:29;6.85;;;2.33;;
42518;SDS011;28147;47.520;18.920;2023-02-12T12:23:59;3.67;;;1.80;;
42518;SDS011;28147;47.520;18.920;2023-02-12T12:26:27;6.10;;;2.10;;
42518;SDS011;28147;47.520;18.920;2023-02-12T12:31:39;4.75;;;2.13;;
42518;SDS011;28147;47.520;18.920;2023-02-12T13:04:17;4.82;;;1.85;;
42518;SDS011;28147;47.520;18.920;2023-02-12T13:26:53;4.88;;;2.58;;
42518;SDS011;28147;47.520;18.920;2023-02-12T13:35:07;3.80;;;2.15;;
42518;SDS011;28147;47.520;18.920;2023-02-12T13:37:46;6.03;;;2.40;;
42518;SDS011;28147;47.520;18.920;2023-02-12T13:40:23;3.88;;;2.50;;
42518;SDS011;28147;47.520;18.920;2023-02-12T14:04:56;4.55;;;2.30;;
42518;SDS011;28147;47.520;18.920;2023-02-12T14:07:38;4.53;;;2.40;;
42518;SDS011;28147;47.520;18.920;2023-02-12T14:15:34;3.90;;;1.70;;
42518;SDS011;28147;47.520;18.920;2023-02-12T14:20:33;3.92;;;1.92;;
42518;SDS011;28147;47.520;18.920;2023-02-12T14:23:20;4.88;;;2.53;;
42518;SDS011;28147;47.520;18.920;2023-02-12T14:33:47;15.30;;;8.75;;
42518;SDS011;28147;47.520;18.920;2023-02-12T14:36:56;18.75;;;9.77;;
42518;SDS011;28147;47.520;18.920;2023-02-12T14:41:55;26.25;;;13.65;;
42518;SDS011;28147;47.520;18.920;2023-02-12T14:44:46;26.13;;;12.55;;
42518;SDS011;28147;47.520;18.920;2023-02-12T14:47:53;26.40;;;13.27;;
42518;SDS011;28147;47.520;18.920;2023-02-12T14:50:13;26.85;;;14.15;;
42518;SDS011;28147;47.520;18.920;2023-02-12T14:52:43;29.05;;;14.30;;
42518;SDS011;28147;47.520;18.920;2023-02-12T14:55:18;22.98;;;12.50;;
42518;SDS011;28147;47.520;18.920;2023-02-12T14:57:47;24.55;;;13.23;;
42518;SDS011;28147;47.520;18.920;2023-02-12T15:02:47;25.35;;;13.18;;
42518;SDS011;28147;47.520;18.920;2023-02-12T15:05:17;29.83;;;14.68;;
42518;SDS011;28147;47.520;18.920;2023-02-12T15:07:49;26.48;;;15.07;;
42518;SDS011;28147;47.520;18.920;2023-02-12T15:10:36;23.70;;;13.25;;
42518;SDS011;28147;47.520;18.920;2023-02-12T15:13:22;26.35;;;15.00;;
42518;SDS011;28147;47.520;18.920;2023-02-12T15:15:53;26.05;;;12.70;;
42518;SDS011;28147;47.520;18.920;2023-02-12T15:26:27;24.50;;;12.90;;
42518;SDS011;28147;47.520;18.920;2023-02-12T15:28:54;27.20;;;13.43;;
42518;SDS011;28147;47.520;18.920;2023-02-12T15:31:26;25.17;;;12.55;;
42518;SDS011;28147;47.520;18.920;2023-02-12T15:33:54;24.33;;;14.05;;
42518;SDS011;28147;47.520;18.920;2023-02-12T15:36:22;24.20;;;12.95;;
42518;SDS011;28147;47.520;18.920;2023-02-12T15:38:51;23.42;;;13.75;;
42518;SDS011;28147;47.520;18.920;2023-02-12T15:41:23;21.40;;;12.85;;
42518;SDS011;28147;47.520;18.920;2023-02-12T15:43:52;22.48;;;13.23;;
42518;SDS011;28147;47.520;18.920;2023-02-12T15:46:17;23.98;;;12.70;;
42518;SDS011;28147;47.520;18.920;2023-02-12T15:48:44;23.88;;;12.55;;
42518;SDS011;28147;47.520;18.920;2023-02-12T15:53:35;23.88;;;13.05;;
42518;SDS011;28147;47.520;18.920;2023-02-12T15:56:03;22.63;;;12.00;;
42518;SDS011;28147;47.520;18.920;2023-02-12T15:58:36;22.38;;;12.90;;
42518;SDS011;28147;47.520;18.920;2023-02-12T16:01:14;26.17;;;13.68;;
42518;SDS011;28147;47.520;18.920;2023-02-12T16:08:41;30.48;;;15.95;;
42518;SDS011;28147;47.520;18.920;2023-02-12T16:11:09;26.58;;;13.07;;
42518;SDS011;28147;47.520;18.920;2023-02-12T16:13:38;21.17;;;12.40;;
42518;SDS011;28147;47.520;18.920;2023-02-12T16:16:18;24.05;;;12.52;;
42518;SDS011;28147;47.520;18.920;2023-02-12T16:19:01;25.42;;;13.77;;
42518;SDS011;28147;47.520;18.920;2023-02-12T16:21:28;22.02;;;11.93;;
42518;SDS011;28147;47.520;18.920;2023-02-12T16:23:53;23.08;;;12.52;;
42518;SDS011;28147;47.520;18.920;2023-02-12T16:26:20;17.30;;;7.72;;
42518;SDS011;28147;47.520;18.920;2023-02-12T16:28:49;15.10;;;9.15;;
42518;SDS011;28147;47.520;18.920;2023-02-12T16:31:18;22.25;;;12.07;;
42518;SDS011;28147;47.520;18.920;2023-02-12T16:33:50;24.40;;;13.15;;
42518;SDS011;28147;47.520;18.920;2023-02-12T16:43:47;23.52;;;12.90;;
42518;SDS011;28147;47.520;18.920;2023-02-12T16:46:16;18.60;;;9.45;;
42518;SDS011;28147;47.520;18.920;2023-02-12T16:48:45;16.08;;;9.38;;
42518;SDS011;28147;47.520;18.920;2023-02-12T16:53:49;9.32;;;4.82;;
42518;SDS011;28147;47.520;18.920;2023-02-12T16:56:18;12.85;;;5.05;;
42518;SDS011;28147;47.520;18.920;2023-02-12T16:58:47;6.78;;;3.85;;
42518;SDS011;28147;47.520;18.920;2023-02-12T17:01:15;7.20;;;3.05;;
42518;SDS011;28147;47.520;18.920;2023-02-12T17:03:46;7.38;;;3.03;;
42518;SDS011;28147;47.520;18.920;2023-02-12T17:06:14;5.25;;;2.80;;
42518;SDS011;28147;47.520;18.920;2023-02-12T17:08:41;7.53;;;2.97;;
42518;SDS011;28147;47.520;18.920;2023-02-12T17:11:07;5.82;;;2.63;;
42518;SDS011;28147;47.520;18.920;2023-02-12T17:13:32;6.15;;;2.70;;
42518;SDS011;28147;47.520;18.920;2023-02-12T17:15:59;6.72;;;2.80;;
42518;SDS011;28147;47.520;18.920;2023-02-12T17:18:28;7.13;;;3.15;;
42518;SDS011;28147;47.520;18.920;2023-02-12T17:20:58;5.60;;;3.00;;
42518;SDS011;28147;47.520;18.920;2023-02-12T17:23:25;7.45;;;3.30;;
42518;SDS011;28147;47.520;18.920;2023-02-12T17:25:51;7.85;;;3.20;;
42518;SDS011;28147;47.520;18.920;2023-02-12T17:28:17;6.40;;;3.38;;
42518;SDS011;28147;47.520;18.920;2023-02-12T17:30:42;6.20;;;3.13;;
42518;SDS011;28147;47.520;18.920;2023-02-12T17:33:08;6.57;;;3.20;;
42518;SDS011;28147;47.520;18.920;2023-02-12T17:35:33;6.15;;;3.45;;
42518;SDS011;28147;47.520;18.920;2023-02-12T17:37:59;10.07;;;3.17;;
42518;SDS011;28147;47.520;18.920;2023-02-12T17:40:24;7.15;;;3.15;;
42518;SDS011;28147;47.520;18.920;2023-02-12T17:42:50;11.85;;;4.32;;
42518;SDS011;28147;47.520;18.920;2023-02-12T17:45:15;9.15;;;5.65;;
42518;SDS011;28147;47.520;18.920;2023-02-12T17:47:41;13.15;;;6.00;;
42518;SDS011;28147;47.520;18.920;2023-02-12T17:50:07;12.23;;;5.65;;
42518;SDS011;28147;47.520;18.920;2023-02-12T17:52:35;9.10;;;4.00;;
42518;SDS011;28147;47.520;18.920;2023-02-12T17:55:00;9.10;;;5.20;;
42518;SDS011;28147;47.520;18.920;2023-02-12T17:57:26;10.57;;;5.00;;
42518;SDS011;28147;47.520;18.920;2023-02-12T17:59:51;8.82;;;4.15;;
42518;SDS011;28147;47.520;18.920;2023-02-12T18:02:16;10.43;;;4.15;;
42518;SDS011;28147;47.520;18.920;2023-02-12T18:04:42;6.72;;;3.13;;
42518;SDS011;28147;47.520;18.920;2023-02-12T18:07:07;9.10;;;3.90;;
42518;SDS011;28147;47.520;18.920;2023-02-12T18:09:35;9.40;;;4.93;;
42518;SDS011;28147;47.520;18.920;2023-02-12T18:12:02;9.38;;;3.83;;
42518;SDS011;28147;47.520;18.920;2023-02-12T18:14:27;13.13;;;4.07;;
42518;SDS011;28147;47.520;18.920;2023-02-12T18:16:53;6.35;;;3.40;;
42518;SDS011;28147;47.520;18.920;2023-02-12T18:19:18;8.18;;;3.47;;
42518;SDS011;28147;47.520;18.920;2023-02-12T18:21:44;8.10;;;3.53;;
42518;SDS011;28147;47.520;18.920;2023-02-12T18:24:09;9.63;;;4.18;;
42518;SDS011;28147;47.520;18.920;2023-02-12T18:26:34;6.38;;;3.45;;
42518;SDS011;28147;47.520;18.920;2023-02-12T18:29:00;10.63;;;4.20;;
42518;SDS011;28147;47.520;18.920;2023-02-12T18:31:26;13.38;;;6.25;;
42518;SDS011;28147;47.520;18.920;2023-02-12T18:33:52;11.73;;;5.85;;
42518;SDS011;28147;47.520;18.920;2023-02-12T18:36:18;12.02;;;6.28;;
42518;SDS011;28147;47.520;18.920;2023-02-12T18:38:46;9.43;;;4.65;;
42518;SDS011;28147;47.520;18.920;2023-02-12T18:41:14;9.45;;;3.45;;
42518;SDS011;28147;47.520;18.920;2023-02-12T18:43:41;8.98;;;4.38;;
42518;SDS011;28147;47.520;18.920;2023-02-12T18:46:17;10.70;;;5.13;;
42518;SDS011;28147;47.520;18.920;2023-02-12T18:48:44;8.80;;;3.92;;
42518;SDS011;28147;47.520;18.920;2023-02-12T18:51:12;11.65;;;5.38;;